Time;durP1;ratioP1;P1;durP2;ratioP2;P2;SDS_P1;SDS_P2;PMS_P1;PMS_P2;Temp;Humidity;BMP_temperature;BMP_pressure;BME280_temperature;BME280_humidity;BME280_pressure;Samples;Min_cycle;Max_cycle;Signal;HPM_P1;HPM_P2
2024/01/24 00:02:21;;;;;;;1.92;0.60;;;;;;;;;;5084792;28;20459;-64
2024/01/24 00:04:49;;;;;;;0.50;0.50;;;;;;;;;;5086528;28;20051;-65
2024/01/24 00:07:18;;;;;;;0.50;0.47;;;;;;;;;;5089728;28;20040;-64
2024/01/24 00:09:46;;;;;;;1.33;0.50;;;;;;;;;;5087555;28;20068;-65
2024/01/24 00:12:14;;;;;;;1.95;1.25;;;;;;;;;;5089538;28;20048;-65
2024/01/24 00:14:43;;;;;;;2.15;0.70;;;;;;;;;;5089642;28;20048;-68
2024/01/24 00:17:12;;;;;;;0.60;0.60;;;;;;;;;;5089598;28;20054;-66
2024/01/24 00:19:42;;;;;;;2.60;0.85;;;;;;;;;;5088331;28;20600;-66
2024/01/24 00:22:11;;;;;;;1.65;0.60;;;;;;;;;;5085784;28;20095;-66
2024/01/24 00:24:40;;;;;;;1.95;0.60;;;;;;;;;;5087581;28;20044;-66
2024/01/24 00:27:08;;;;;;;0.50;0.50;;;;;;;;;;5089120;28;20076;-67
2024/01/24 00:29:36;;;;;;;0.90;0.80;;;;;;;;;;5087279;28;20052;-69
2024/01/24 00:32:05;;;;;;;1.17;0.70;;;;;;;;;;5083054;28;20063;-66
2024/01/24 00:34:33;;;;;;;1.65;0.60;;;;;;;;;;5088855;28;20040;-66
2024/01/24 00:37:03;;;;;;;0.85;0.52;;;;;;;;;;5089859;28;20044;-66
2024/01/24 00:39:32;;;;;;;1.90;0.70;;;;;;;;;;5079437;28;20051;-66
2024/01/24 00:42:00;;;;;;;1.38;0.60;;;;;;;;;;5082262;28;20040;-66
2024/01/24 00:44:29;;;;;;;1.55;0.80;;;;;;;;;;5087120;28;20050;-69
2024/01/24 00:46:57;;;;;;;1.63;0.70;;;;;;;;;;5085025;28;20105;-66
2024/01/24 00:49:26;;;;;;;0.55;0.45;;;;;;;;;;5076421;28;20051;-66
2024/01/24 00:51:55;;;;;;;1.15;0.55;;;;;;;;;;5088353;28;20048;-66
2024/01/24 00:54:25;;;;;;;0.95;0.55;;;;;;;;;;5082898;28;20048;-66
2024/01/24 00:56:53;;;;;;;0.52;0.52;;;;;;;;;;5088010;28;20131;-66
2024/01/24 00:59:21;;;;;;;2.05;0.60;;;;;;;;;;5086548;28;20105;-66
2024/01/24 01:01:50;;;;;;;0.75;0.47;;;;;;;;;;5086188;28;20543;-65
2024/01/24 01:04:18;;;;;;;0.57;0.55;;;;;;;;;;5086420;28;20044;-67
2024/01/24 01:06:46;;;;;;;1.20;0.57;;;;;;;;;;5087310;28;20036;-67
2024/01/24 01:09:14;;;;;;;1.58;0.60;;;;;;;;;;5087621;28;20089;-66
2024/01/24 01:11:44;;;;;;;0.63;0.50;;;;;;;;;;5088092;28;20047;-65
2024/01/24 01:14:12;;;;;;;0.40;0.40;;;;;;;;;;5089376;28;20071;-66
2024/01/24 01:16:41;;;;;;;0.50;0.50;;;;;;;;;;5091059;28;20040;-65
2024/01/24 01:19:10;;;;;;;0.88;0.50;;;;;;;;;;5084955;28;20493;-65
2024/01/24 01:21:40;;;;;;;1.05;0.55;;;;;;;;;;5080590;28;20484;-66
2024/01/24 01:24:09;;;;;;;0.40;0.40;;;;;;;;;;5088715;28;20071;-67
2024/01/24 01:26:38;;;;;;;0.57;0.57;;;;;;;;;;5090347;28;20119;-67
2024/01/24 01:29:07;;;;;;;0.45;0.45;;;;;;;;;;5087833;28;20048;-66
2024/01/24 01:31:36;;;;;;;0.55;0.45;;;;;;;;;;5087651;28;20036;-64
2024/01/24 01:34:04;;;;;;;0.40;0.40;;;;;;;;;;5090159;28;20093;-65
2024/01/24 01:36:32;;;;;;;0.50;0.50;;;;;;;;;;5091345;28;20051;-65
2024/01/24 01:39:01;;;;;;;2.67;0.57;;;;;;;;;;5082735;28;20064;-64
2024/01/24 01:41:29;;;;;;;0.43;0.40;;;;;;;;;;5084930;28;20060;-65
2024/01/24 01:43:58;;;;;;;0.38;0.38;;;;;;;;;;5089569;28;20055;-64
2024/01/24 01:46:28;;;;;;;1.10;0.50;;;;;;;;;;5091574;28;20047;-64
2024/01/24 01:48:57;;;;;;;0.50;0.50;;;;;;;;;;5091633;28;20044;-64
2024/01/24 01:51:26;;;;;;;1.05;0.50;;;;;;;;;;5090075;28;20048;-64
2024/01/24 01:53:55;;;;;;;0.50;0.50;;;;;;;;;;5089408;28;20047;-63
2024/01/24 01:56:24;;;;;;;1.15;0.63;;;;;;;;;;5089049;28;20102;-66
2024/01/24 01:58:53;;;;;;;0.40;0.40;;;;;;;;;;5077279;28;20052;-65
2024/01/24 02:01:22;;;;;;;0.40;0.40;;;;;;;;;;5084622;28;20067;-66
2024/01/24 02:03:51;;;;;;;0.60;0.60;;;;;;;;;;5081442;28;20041;-64
2024/01/24 02:06:20;;;;;;;0.40;0.40;;;;;;;;;;5088231;28;20044;-64
2024/01/24 02:08:49;;;;;;;0.30;0.30;;;;;;;;;;5089368;28;20046;-65
2024/01/24 02:11:17;;;;;;;0.40;0.40;;;;;;;;;;5090643;28;20047;-65
2024/01/24 02:13:46;;;;;;;0.40;0.40;;;;;;;;;;5090836;28;20121;-65
2024/01/24 02:16:14;;;;;;;1.55;0.50;;;;;;;;;;5089273;28;20050;-65
2024/01/24 02:18:48;;;;;;;1.20;0.47;;;;;;;;;;5090703;28;20105;-64
2024/01/24 02:21:18;;;;;;;1.95;0.40;;;;;;;;;;5089481;28;20071;-65
2024/01/24 02:23:47;;;;;;;0.35;0.35;;;;;;;;;;5086485;28;20044;-65
2024/01/24 02:26:17;;;;;;;0.30;0.30;;;;;;;;;;5085654;28;20052;-63
2024/01/24 02:28:46;;;;;;;0.63;0.40;;;;;;;;;;5085478;28;20054;-64
2024/01/24 02:31:14;;;;;;;0.70;0.55;;;;;;;;;;5082500;28;20067;-62
2024/01/24 02:33:43;;;;;;;1.67;0.50;;;;;;;;;;5088938;28;20480;-64
2024/01/24 02:36:14;;;;;;;0.30;0.30;;;;;;;;;;5084914;28;20050;-66
2024/01/24 02:38:43;;;;;;;0.40;0.40;;;;;;;;;;5085642;28;20372;-64
2024/01/24 02:41:11;;;;;;;0.40;0.40;;;;;;;;;;5089958;28;20055;-64
2024/01/24 02:43:41;;;;;;;0.30;0.30;;;;;;;;;;5086095;28;20079;-64
2024/01/24 02:46:09;;;;;;;1.27;0.55;;;;;;;;;;5085286;28;20048;-64
2024/01/24 02:48:38;;;;;;;0.70;0.43;;;;;;;;;;5090216;28;20501;-63
2024/01/24 02:51:06;;;;;;;2.30;0.47;;;;;;;;;;5085509;28;20444;-63
2024/01/24 02:53:35;;;;;;;0.93;0.40;;;;;;;;;;5088196;28;20174;-63
2024/01/24 02:56:03;;;;;;;0.40;0.40;;;;;;;;;;5089672;28;20562;-63
2024/01/24 02:58:32;;;;;;;0.68;0.30;;;;;;;;;;5089001;28;20553;-66
2024/01/24 03:01:01;;;;;;;0.40;0.40;;;;;;;;;;5086730;28;20101;-65
2024/01/24 03:03:30;;;;;;;0.77;0.40;;;;;;;;;;5083206;28;20048;-64
2024/01/24 03:05:58;;;;;;;0.32;0.32;;;;;;;;;;5083334;28;20059;-63
2024/01/24 03:08:27;;;;;;;1.10;0.40;;;;;;;;;;5089354;28;20113;-65
2024/01/24 03:10:55;;;;;;;0.40;0.40;;;;;;;;;;5089838;28;20044;-66
2024/01/24 03:13:24;;;;;;;0.77;0.50;;;;;;;;;;5089716;28;20349;-66
2024/01/24 03:15:52;;;;;;;0.60;0.47;;;;;;;;;;5077602;28;20392;-66
2024/01/24 03:18:23;;;;;;;1.55;0.52;;;;;;;;;;5090632;28;20071;-64
2024/01/24 03:20:53;;;;;;;0.63;0.40;;;;;;;;;;5086050;28;20060;-64
2024/01/24 03:23:24;;;;;;;0.60;0.40;;;;;;;;;;5087850;28;20051;-65
2024/01/24 03:25:52;;;;;;;0.30;0.30;;;;;;;;;;5080514;28;20057;-66
2024/01/24 03:28:21;;;;;;;0.40;0.40;;;;;;;;;;5089165;28;20047;-64
2024/01/24 03:30:49;;;;;;;0.47;0.47;;;;;;;;;;5077366;28;20109;-64
2024/01/24 03:33:18;;;;;;;0.30;0.30;;;;;;;;;;5090360;28;20560;-64
2024/01/24 03:35:47;;;;;;;0.50;0.50;;;;;;;;;;5085370;28;20047;-66
2024/01/24 03:38:16;;;;;;;0.63;0.63;;;;;;;;;;5077598;28;20097;-66
2024/01/24 03:40:44;;;;;;;0.50;0.43;;;;;;;;;;5082377;28;20040;-66
2024/01/24 03:43:13;;;;;;;0.30;0.30;;;;;;;;;;5086372;28;20398;-64
2024/01/24 03:45:41;;;;;;;2.92;0.70;;;;;;;;;;5086444;28;20554;-65
2024/01/24 03:48:10;;;;;;;2.03;0.50;;;;;;;;;;5088919;28;20050;-66
2024/01/24 03:50:39;;;;;;;0.52;0.40;;;;;;;;;;5089215;28;20500;-65
2024/01/24 03:53:08;;;;;;;0.70;0.50;;;;;;;;;;5086217;28;20040;-65
2024/01/24 03:55:37;;;;;;;0.73;0.60;;;;;;;;;;5081381;28;20136;-65
2024/01/24 03:58:05;;;;;;;0.75;0.40;;;;;;;;;;5088828;28;20558;-67
2024/01/24 04:00:34;;;;;;;0.40;0.40;;;;;;;;;;5086238;28;20040;-65
2024/01/24 04:03:02;;;;;;;0.63;0.50;;;;;;;;;;5080094;28;20496;-65
2024/01/24 04:05:31;;;;;;;0.47;0.47;;;;;;;;;;5087150;28;20040;-65
2024/01/24 04:07:59;;;;;;;0.45;0.30;;;;;;;;;;5081971;28;20052;-64
2024/01/24 04:10:29;;;;;;;0.40;0.40;;;;;;;;;;5082408;28;20456;-65
2024/01/24 04:12:58;;;;;;;0.68;0.38;;;;;;;;;;5086390;28;20040;-66
2024/01/24 04:15:27;;;;;;;0.22;0.22;;;;;;;;;;5079063;28;20032;-66
2024/01/24 04:17:55;;;;;;;0.57;0.50;;;;;;;;;;5083214;28;20548;-66
2024/01/24 04:20:24;;;;;;;0.40;0.40;;;;;;;;;;5087494;28;20112;-64
2024/01/24 04:22:52;;;;;;;3.42;0.43;;;;;;;;;;5086885;28;20052;-66
2024/01/24 04:25:20;;;;;;;0.77;0.40;;;;;;;;;;5088928;28;20087;-66
2024/01/24 04:27:50;;;;;;;0.30;0.30;;;;;;;;;;5083778;28;20044;-65
2024/01/24 04:30:19;;;;;;;0.50;0.40;;;;;;;;;;5086045;28;20054;-65
2024/01/24 04:32:47;;;;;;;0.40;0.40;;;;;;;;;;5084006;28;20075;-67
2024/01/24 04:35:16;;;;;;;0.63;0.40;;;;;;;;;;5078788;28;20044;-65
2024/01/24 04:37:45;;;;;;;0.30;0.30;;;;;;;;;;5086812;28;20101;-66
2024/01/24 04:40:13;;;;;;;0.40;0.32;;;;;;;;;;5080216;28;20106;-66
2024/01/24 04:42:42;;;;;;;0.88;0.50;;;;;;;;;;5087345;28;20479;-67
2024/01/24 04:45:14;;;;;;;0.50;0.50;;;;;;;;;;5084041;28;20071;-66
2024/01/24 04:47:45;;;;;;;0.47;0.47;;;;;;;;;;5086857;28;20048;-65
2024/01/24 04:50:13;;;;;;;0.80;0.50;;;;;;;;;;5087727;28;20048;-67
2024/01/24 04:52:42;;;;;;;0.30;0.30;;;;;;;;;;5083295;28;20112;-66
2024/01/24 04:55:13;;;;;;;0.30;0.30;;;;;;;;;;5085546;28;20067;-64
2024/01/24 04:57:42;;;;;;;1.25;0.35;;;;;;;;;;5084286;28;20048;-66
2024/01/24 05:00:13;;;;;;;0.65;0.40;;;;;;;;;;5081572;28;20049;-67
2024/01/24 05:02:42;;;;;;;0.77;0.40;;;;;;;;;;5076323;28;20048;-66
2024/01/24 05:05:11;;;;;;;0.75;0.50;;;;;;;;;;5086093;28;20100;-70
2024/01/24 05:07:40;;;;;;;0.30;0.30;;;;;;;;;;5086923;28;20044;-66
2024/01/24 05:10:08;;;;;;;0.85;0.43;;;;;;;;;;5083968;28;20056;-65
2024/01/24 05:12:37;;;;;;;1.60;0.50;;;;;;;;;;5088235;28;20153;-68
2024/01/24 05:15:08;;;;;;;0.60;0.40;;;;;;;;;;5074947;28;20054;-65
2024/01/24 05:17:40;;;;;;;0.47;0.40;;;;;;;;;;5086386;28;20644;-65
2024/01/24 05:20:10;;;;;;;0.50;0.45;;;;;;;;;;5087472;28;20044;-67
2024/01/24 05:22:39;;;;;;;0.32;0.32;;;;;;;;;;5085399;28;20316;-67
2024/01/24 05:25:07;;;;;;;0.40;0.40;;;;;;;;;;5084523;28;20036;-66
2024/01/24 05:27:36;;;;;;;3.20;0.40;;;;;;;;;;5084893;28;20573;-66
2024/01/24 05:30:05;;;;;;;0.75;0.40;;;;;;;;;;5087850;28;20064;-65
2024/01/24 05:32:48;;;;;;;0.50;0.50;;;;;;;;;;5086921;28;20044;-64
2024/01/24 05:35:18;;;;;;;0.30;0.30;;;;;;;;;;5085087;28;20124;-65
2024/01/24 05:37:47;;;;;;;0.40;0.40;;;;;;;;;;5083436;28;20524;-65
2024/01/24 05:40:15;;;;;;;0.40;0.40;;;;;;;;;;5077106;28;20071;-65
2024/01/24 05:42:44;;;;;;;0.40;0.40;;;;;;;;;;5079370;28;20075;-66
2024/01/24 05:45:13;;;;;;;0.80;0.50;;;;;;;;;;5086769;28;20362;-65
2024/01/24 05:47:43;;;;;;;0.60;0.40;;;;;;;;;;5087388;28;20044;-66
2024/01/24 05:50:13;;;;;;;0.85;0.50;;;;;;;;;;5086187;28;20052;-66
2024/01/24 05:52:42;;;;;;;0.40;0.40;;;;;;;;;;5077670;28;20044;-66
2024/01/24 05:55:11;;;;;;;0.40;0.40;;;;;;;;;;5085303;28;20049;-67
2024/01/24 05:57:41;;;;;;;0.43;0.43;;;;;;;;;;5082261;28;20087;-66
2024/01/24 06:00:13;;;;;;;0.30;0.30;;;;;;;;;;5081405;28;20444;-69
2024/01/24 06:02:44;;;;;;;1.33;0.38;;;;;;;;;;5089958;28;20079;-70
2024/01/24 06:05:15;;;;;;;2.00;0.85;;;;;;;;;;5084406;28;20136;-70
2024/01/24 06:07:44;;;;;;;2.28;0.70;;;;;;;;;;5086244;28;20044;-68
2024/01/24 06:10:13;;;;;;;0.95;0.43;;;;;;;;;;5078404;28;20040;-69
2024/01/24 06:12:41;;;;;;;0.95;0.40;;;;;;;;;;5090479;28;20051;-69
2024/01/24 06:15:10;;;;;;;2.05;0.47;;;;;;;;;;5088572;28;20052;-71
2024/01/24 06:17:39;;;;;;;0.47;0.40;;;;;;;;;;5085731;28;20048;-71
2024/01/24 06:20:08;;;;;;;1.10;0.50;;;;;;;;;;5089878;28;20097;-69
2024/01/24 06:22:38;;;;;;;1.67;0.50;;;;;;;;;;5083111;28;20043;-68
2024/01/24 06:25:07;;;;;;;0.52;0.50;;;;;;;;;;5081012;28;20056;-69
2024/01/24 06:27:36;;;;;;;1.48;0.50;;;;;;;;;;5088289;28;20139;-69
2024/01/24 06:30:05;;;;;;;0.40;0.40;;;;;;;;;;5084327;28;20059;-70
2024/01/24 06:32:51;;;;;;;0.40;0.40;;;;;;;;;;5090027;28;20059;-68
2024/01/24 06:35:20;;;;;;;0.65;0.38;;;;;;;;;;5088124;28;20396;-68
2024/01/24 06:37:51;;;;;;;0.95;0.35;;;;;;;;;;5081462;28;20045;-69
2024/01/24 06:40:20;;;;;;;0.63;0.30;;;;;;;;;;5081947;28;20086;-71
2024/01/24 06:42:50;;;;;;;0.40;0.40;;;;;;;;;;5088105;28;20260;-71
2024/01/24 06:45:19;;;;;;;1.08;0.40;;;;;;;;;;5091085;28;20484;-68
2024/01/24 06:47:47;;;;;;;1.25;0.68;;;;;;;;;;5091735;28;20127;-69
2024/01/24 06:50:17;;;;;;;0.65;0.40;;;;;;;;;;5090780;28;20102;-69
2024/01/24 06:52:46;;;;;;;0.50;0.40;;;;;;;;;;5085761;28;20496;-69
2024/01/24 06:55:17;;;;;;;0.30;0.30;;;;;;;;;;5087362;28;20044;-70
2024/01/24 06:57:45;;;;;;;0.40;0.40;;;;;;;;;;5089431;28;20087;-69
2024/01/24 07:00:14;;;;;;;0.30;0.30;;;;;;;;;;5090720;28;20097;-68
2024/01/24 07:02:43;;;;;;;0.40;0.40;;;;;;;;;;5087878;28;20125;-68
2024/01/24 07:05:11;;;;;;;0.88;0.50;;;;;;;;;;5085147;28;20134;-70
2024/01/24 07:07:40;;;;;;;0.40;0.40;;;;;;;;;;5084480;28;20473;-67
2024/01/24 07:10:10;;;;;;;1.90;0.55;;;;;;;;;;5087506;28;20032;-68
2024/01/24 07:12:45;;;;;;;0.70;0.40;;;;;;;;;;5090895;28;20052;-67
2024/01/24 07:15:15;;;;;;;1.27;0.50;;;;;;;;;;5085619;28;20127;-68
2024/01/24 07:17:44;;;;;;;0.47;0.47;;;;;;;;;;5082766;28;20044;-71
2024/01/24 07:20:13;;;;;;;0.50;0.45;;;;;;;;;;5090103;28;20093;-70
2024/01/24 07:22:42;;;;;;;0.80;0.40;;;;;;;;;;5086254;28;20058;-67
2024/01/24 07:25:10;;;;;;;0.30;0.30;;;;;;;;;;5085854;28;20051;-67
2024/01/24 07:27:38;;;;;;;0.50;0.40;;;;;;;;;;5086044;28;20528;-69
2024/01/24 07:30:09;;;;;;;0.93;0.50;;;;;;;;;;5082594;28;20040;-68
2024/01/24 07:32:40;;;;;;;1.30;0.77;;;;;;;;;;5087652;28;20044;-68
2024/01/24 07:35:09;;;;;;;0.45;0.45;;;;;;;;;;5088948;28;20044;-69
2024/01/24 07:37:38;;;;;;;0.40;0.40;;;;;;;;;;5090136;28;20055;-68
2024/01/24 07:40:10;;;;;;;0.98;0.40;;;;;;;;;;5085603;28;20566;-68
2024/01/24 07:42:39;;;;;;;0.35;0.35;;;;;;;;;;5087528;28;20036;-69
2024/01/24 07:45:10;;;;;;;0.65;0.50;;;;;;;;;;5087680;28;20067;-70
2024/01/24 07:47:38;;;;;;;0.40;0.40;;;;;;;;;;5086855;28;20051;-67
2024/01/24 07:50:08;;;;;;;0.40;0.40;;;;;;;;;;5085032;28;20554;-68
2024/01/24 07:52:36;;;;;;;0.93;0.50;;;;;;;;;;5086232;28;20101;-66
2024/01/24 07:55:10;;;;;;;1.83;0.50;;;;;;;;;;5077375;28;20059;-67
2024/01/24 07:57:40;;;;;;;0.40;0.40;;;;;;;;;;5073577;28;20501;-66
2024/01/24 08:00:16;;;;;;;0.52;0.50;;;;;;;;;;5084147;28;20040;-67
2024/01/24 08:02:46;;;;;;;0.40;0.40;;;;;;;;;;5088185;28;20382;-67
2024/01/24 08:05:18;;;;;;;0.55;0.43;;;;;;;;;;5082939;28;20583;-66
2024/01/24 08:07:46;;;;;;;0.47;0.47;;;;;;;;;;5088866;28;20441;-67
2024/01/24 08:10:15;;;;;;;0.73;0.50;;;;;;;;;;5076851;28;20049;-66
2024/01/24 08:12:44;;;;;;;0.50;0.40;;;;;;;;;;5076913;28;20051;-66
2024/01/24 08:15:14;;;;;;;0.68;0.50;;;;;;;;;;5087556;28;20072;-67
2024/01/24 08:17:43;;;;;;;0.30;0.30;;;;;;;;;;5084807;28;20493;-64
2024/01/24 08:20:12;;;;;;;0.50;0.40;;;;;;;;;;5087159;28;20044;-67
2024/01/24 08:22:41;;;;;;;0.82;0.50;;;;;;;;;;5088757;28;20060;-65
2024/01/24 08:25:09;;;;;;;0.88;0.50;;;;;;;;;;5079410;28;20056;-65
2024/01/24 08:27:38;;;;;;;1.90;0.57;;;;;;;;;;5087831;28;20059;-67
2024/01/24 08:30:08;;;;;;;0.30;0.30;;;;;;;;;;5088404;28;20148;-66
2024/01/24 08:32:40;;;;;;;0.40;0.40;;;;;;;;;;5086151;28;20055;-66
2024/01/24 08:35:10;;;;;;;0.40;0.40;;;;;;;;;;5088762;28;20044;-66
2024/01/24 08:37:39;;;;;;;0.65;0.47;;;;;;;;;;5087740;28;20098;-67
2024/01/24 08:40:10;;;;;;;0.30;0.30;;;;;;;;;;5087486;28;20108;-66
2024/01/24 08:42:41;;;;;;;0.30;0.30;;;;;;;;;;5083848;28;20071;-68
2024/01/24 08:45:10;;;;;;;1.50;0.55;;;;;;;;;;5080935;28;20043;-66
2024/01/24 08:47:40;;;;;;;0.40;0.40;;;;;;;;;;5087044;28;20412;-65
2024/01/24 08:50:09;;;;;;;0.40;0.40;;;;;;;;;;5086815;28;20044;-66
2024/01/24 08:52:38;;;;;;;1.85;0.50;;;;;;;;;;5084105;28;20052;-66
2024/01/24 08:55:08;;;;;;;0.80;0.60;;;;;;;;;;5088058;28;20076;-66
2024/01/24 08:57:36;;;;;;;0.40;0.30;;;;;;;;;;5087385;28;20199;-66
2024/01/24 09:00:07;;;;;;;1.33;0.57;;;;;;;;;;5084503;28;20463;-64
2024/01/24 09:02:36;;;;;;;0.88;0.47;;;;;;;;;;5079976;28;20047;-65
2024/01/24 09:05:08;;;;;;;0.40;0.40;;;;;;;;;;5083175;28;20054;-65
2024/01/24 09:07:37;;;;;;;2.00;0.50;;;;;;;;;;5085858;28;20058;-66
2024/01/24 09:10:08;;;;;;;0.40;0.40;;;;;;;;;;5086325;28;20048;-65
2024/01/24 09:12:37;;;;;;;2.70;0.50;;;;;;;;;;5084830;28;20060;-68
2024/01/24 09:15:06;;;;;;;0.88;0.47;;;;;;;;;;5087285;28;20055;-65
2024/01/24 09:17:35;;;;;;;0.30;0.30;;;;;;;;;;5084292;28;20051;-66
2024/01/24 09:20:06;;;;;;;0.40;0.40;;;;;;;;;;5086256;28;20046;-67
2024/01/24 09:22:36;;;;;;;0.60;0.50;;;;;;;;;;5079763;28;20045;-67
2024/01/24 09:25:05;;;;;;;0.88;0.50;;;;;;;;;;5086540;28;20049;-67
2024/01/24 09:27:37;;;;;;;0.45;0.40;;;;;;;;;;5085337;28;20309;-66
2024/01/24 09:30:06;;;;;;;0.40;0.40;;;;;;;;;;5084791;28;20047;-67
2024/01/24 09:32:34;;;;;;;0.30;0.30;;;;;;;;;;5082186;28;20048;-69
2024/01/24 09:35:03;;;;;;;0.57;0.50;;;;;;;;;;5086506;28;20036;-66
2024/01/24 09:37:33;;;;;;;0.35;0.35;;;;;;;;;;5091283;28;20056;-67
2024/01/24 09:40:03;;;;;;;0.73;0.50;;;;;;;;;;5091747;28;20051;-67
2024/01/24 09:42:34;;;;;;;1.58;0.55;;;;;;;;;;5087626;28;20048;-67
2024/01/24 09:45:03;;;;;;;0.40;0.40;;;;;;;;;;5091015;28;20075;-67
2024/01/24 09:47:33;;;;;;;0.55;0.40;;;;;;;;;;5091707;28;20073;-65
2024/01/24 09:50:04;;;;;;;0.57;0.45;;;;;;;;;;5092359;28;20048;-65
2024/01/24 09:52:33;;;;;;;2.58;0.95;;;;;;;;;;5089084;28;20048;-67
2024/01/24 09:55:04;;;;;;;0.70;0.50;;;;;;;;;;5080197;28;20037;-68
2024/01/24 09:57:34;;;;;;;0.50;0.50;;;;;;;;;;5086790;28;20044;-66
2024/01/24 10:00:04;;;;;;;0.60;0.40;;;;;;;;;;5084189;28;20045;-66
2024/01/24 10:02:32;;;;;;;0.30;0.30;;;;;;;;;;5082843;28;20048;-67
2024/01/24 10:05:04;;;;;;;1.15;0.65;;;;;;;;;;5089895;28;20055;-66
2024/01/24 10:07:32;;;;;;;1.45;0.52;;;;;;;;;;5086882;28;20040;-71
2024/01/24 10:10:08;;;;;;;0.70;0.50;;;;;;;;;;5090305;28;20051;-66
2024/01/24 10:12:37;;;;;;;2.05;0.60;;;;;;;;;;5092475;28;20152;-67
2024/01/24 10:15:07;;;;;;;1.38;0.40;;;;;;;;;;5090854;28;20051;-68
2024/01/24 10:17:36;;;;;;;0.90;0.40;;;;;;;;;;5088247;28;20044;-67
2024/01/24 10:20:06;;;;;;;0.30;0.30;;;;;;;;;;5087775;28;20044;-65
2024/01/24 10:22:34;;;;;;;0.50;0.40;;;;;;;;;;5090702;28;20075;-65
2024/01/24 10:25:03;;;;;;;0.45;0.40;;;;;;;;;;5092153;28;20097;-65
2024/01/24 10:27:34;;;;;;;0.60;0.50;;;;;;;;;;5087999;28;20044;-66
2024/01/24 10:30:03;;;;;;;1.75;0.50;;;;;;;;;;5087024;28;20048;-65
2024/01/24 10:32:34;;;;;;;0.93;0.40;;;;;;;;;;5088160;28;20436;-66
2024/01/24 10:35:04;;;;;;;0.68;0.43;;;;;;;;;;5087912;28;20044;-66
2024/01/24 10:37:33;;;;;;;2.00;0.47;;;;;;;;;;5090305;28;20054;-65
2024/01/24 10:40:06;;;;;;;0.40;0.40;;;;;;;;;;5081378;28;20127;-66
2024/01/24 10:42:37;;;;;;;0.50;0.50;;;;;;;;;;5085381;28;20052;-66
2024/01/24 10:45:06;;;;;;;1.17;0.55;;;;;;;;;;5086943;28;20056;-67
2024/01/24 10:47:35;;;;;;;0.38;0.38;;;;;;;;;;5084584;28;20058;-66
2024/01/24 10:50:05;;;;;;;2.83;0.50;;;;;;;;;;5085810;28;20059;-68
2024/01/24 10:52:34;;;;;;;0.40;0.40;;;;;;;;;;5080786;28;20055;-66
2024/01/24 10:55:06;;;;;;;0.70;0.40;;;;;;;;;;5080213;28;20486;-66
2024/01/24 10:57:36;;;;;;;1.00;0.50;;;;;;;;;;5085620;28;20059;-66
2024/01/24 11:00:05;;;;;;;0.80;0.40;;;;;;;;;;5083392;28;20040;-65
2024/01/24 11:02:34;;;;;;;0.57;0.40;;;;;;;;;;5085471;28;20044;-64
2024/01/24 11:05:04;;;;;;;0.30;0.30;;;;;;;;;;5090466;28;20072;-65
2024/01/24 11:07:37;;;;;;;0.50;0.50;;;;;;;;;;5084877;28;20044;-65
2024/01/24 11:10:14;;;;;;;1.13;0.50;;;;;;;;;;5083100;28;20056;-65
2024/01/24 11:12:44;;;;;;;0.40;0.40;;;;;;;;;;5087068;28;20729;-65
2024/01/24 11:15:14;;;;;;;1.17;0.70;;;;;;;;;;5086567;28;20109;-65
2024/01/24 11:17:46;;;;;;;0.40;0.40;;;;;;;;;;5082160;28;20117;-66
2024/01/24 11:20:15;;;;;;;0.38;0.38;;;;;;;;;;5086851;28;20076;-66
2024/01/24 11:22:43;;;;;;;0.82;0.50;;;;;;;;;;5088553;28;20048;-65
2024/01/24 11:25:12;;;;;;;0.30;0.30;;;;;;;;;;5088081;28;20522;-64
2024/01/24 11:27:46;;;;;;;3.60;0.40;;;;;;;;;;5087553;28;20542;-65
2024/01/24 11:30:18;;;;;;;0.50;0.47;;;;;;;;;;5084040;28;20136;-65
2024/01/24 11:33:04;;;;;;;0.30;0.30;;;;;;;;;;5083238;28;20056;-66
2024/01/24 11:35:34;;;;;;;0.32;0.32;;;;;;;;;;5081977;28;20050;-65
2024/01/24 11:38:06;;;;;;;0.65;0.30;;;;;;;;;;5089834;28;20036;-66
2024/01/24 11:40:49;;;;;;;0.40;0.40;;;;;;;;;;5085508;28;20123;-65
2024/01/24 11:43:25;;;;;;;0.40;0.40;;;;;;;;;;5087497;28;20040;-65
2024/01/24 11:45:55;;;;;;;1.17;0.40;;;;;;;;;;5079811;28;20046;-65
2024/01/24 11:48:23;;;;;;;0.40;0.40;;;;;;;;;;5088743;28;20040;-65
2024/01/24 11:50:56;;;;;;;0.52;0.45;;;;;;;;;;5086931;28;20511;-64
2024/01/24 11:53:25;;;;;;;1.30;0.40;;;;;;;;;;5087032;28;20979;-65
2024/01/24 11:55:55;;;;;;;0.30;0.30;;;;;;;;;;5081775;28;20044;-65
2024/01/24 11:58:26;;;;;;;0.70;0.52;;;;;;;;;;5086747;28;20047;-64
2024/01/24 12:00:56;;;;;;;0.68;0.40;;;;;;;;;;5088712;28;20044;-65
2024/01/24 12:03:24;;;;;;;0.73;0.32;;;;;;;;;;5082422;28;20477;-66
2024/01/24 12:05:53;;;;;;;0.65;0.40;;;;;;;;;;5081163;28;20048;-65
2024/01/24 12:08:22;;;;;;;3.40;0.50;;;;;;;;;;5088558;28;20131;-64
2024/01/24 12:10:51;;;;;;;0.20;0.20;;;;;;;;;;5086891;28;20094;-66
2024/01/24 12:13:20;;;;;;;0.38;0.22;;;;;;;;;;5087956;28;20568;-65
2024/01/24 12:15:50;;;;;;;0.30;0.30;;;;;;;;;;5085419;28;20159;-66
2024/01/24 12:18:19;;;;;;;0.77;0.40;;;;;;;;;;5084318;28;20481;-64
2024/01/24 12:20:50;;;;;;;1.67;0.68;;;;;;;;;;5088880;28;20040;-67
2024/01/24 12:23:20;;;;;;;1.75;0.32;;;;;;;;;;5085149;28;20139;-66
2024/01/24 12:25:49;;;;;;;0.30;0.30;;;;;;;;;;5088943;28;20051;-65
2024/01/24 12:28:18;;;;;;;0.80;0.38;;;;;;;;;;5082659;28;20044;-65
2024/01/24 12:30:54;;;;;;;0.52;0.40;;;;;;;;;;5088561;28;20127;-65
2024/01/24 12:33:23;;;;;;;0.43;0.38;;;;;;;;;;5088074;28;20058;-66
2024/01/24 12:35:52;;;;;;;0.70;0.40;;;;;;;;;;5086894;28;20044;-66
2024/01/24 12:38:23;;;;;;;0.43;0.40;;;;;;;;;;5083323;28;20052;-66
2024/01/24 12:40:52;;;;;;;0.47;0.47;;;;;;;;;;5088266;28;20052;-67
2024/01/24 12:43:23;;;;;;;0.38;0.38;;;;;;;;;;5088734;28;20420;-66
2024/01/24 12:45:55;;;;;;;0.43;0.40;;;;;;;;;;5084574;28;20059;-66
2024/01/24 12:48:23;;;;;;;1.27;0.47;;;;;;;;;;5081013;28;20500;-66
2024/01/24 12:50:53;;;;;;;0.90;0.40;;;;;;;;;;5084861;28;20116;-66
2024/01/24 12:53:22;;;;;;;0.32;0.32;;;;;;;;;;5086005;28;20064;-68
2024/01/24 12:55:51;;;;;;;0.52;0.40;;;;;;;;;;5087303;28;20044;-66
2024/01/24 12:58:19;;;;;;;0.82;0.50;;;;;;;;;;5081688;28;20102;-65
2024/01/24 13:00:48;;;;;;;2.30;0.30;;;;;;;;;;5087248;28;20055;-65
2024/01/24 13:03:19;;;;;;;0.73;0.43;;;;;;;;;;5086808;28;20044;-66
2024/01/24 13:05:52;;;;;;;0.43;0.40;;;;;;;;;;5088801;28;20078;-66
2024/01/24 13:08:21;;;;;;;2.00;0.43;;;;;;;;;;5081046;28;20058;-65
2024/01/24 13:10:51;;;;;;;0.73;0.20;;;;;;;;;;5084253;28;20059;-64
2024/01/24 13:13:20;;;;;;;0.30;0.30;;;;;;;;;;5082869;28;20052;-67
2024/01/24 13:15:52;;;;;;;3.03;0.38;;;;;;;;;;5082705;28;20131;-66
2024/01/24 13:18:23;;;;;;;1.52;0.40;;;;;;;;;;5085806;28;20046;-67
2024/01/24 13:20:52;;;;;;;0.40;0.40;;;;;;;;;;5078615;28;20052;-67
2024/01/24 13:23:20;;;;;;;0.65;0.40;;;;;;;;;;5084882;28;20044;-66
2024/01/24 13:25:49;;;;;;;1.13;0.40;;;;;;;;;;5086763;28;20070;-65
2024/01/24 13:28:18;;;;;;;0.50;0.40;;;;;;;;;;5076376;28;20054;-66
2024/01/24 13:30:50;;;;;;;0.40;0.40;;;;;;;;;;5088531;28;20059;-66
2024/01/24 13:33:19;;;;;;;0.80;0.40;;;;;;;;;;5083990;28;20044;-66
2024/01/24 13:35:49;;;;;;;0.30;0.30;;;;;;;;;;5089284;28;20036;-66
2024/01/24 13:38:17;;;;;;;0.30;0.30;;;;;;;;;;5087111;28;20040;-66
2024/01/24 13:40:46;;;;;;;0.30;0.30;;;;;;;;;;5086041;28;20491;-65
2024/01/24 13:43:15;;;;;;;0.30;0.30;;;;;;;;;;5078466;28;20484;-67
2024/01/24 13:45:43;;;;;;;1.02;0.70;;;;;;;;;;5086346;28;20052;-65
2024/01/24 13:48:12;;;;;;;0.55;0.40;;;;;;;;;;5087180;28;20056;-71
2024/01/24 13:50:41;;;;;;;0.30;0.30;;;;;;;;;;5086154;28;20131;-65
2024/01/24 13:53:11;;;;;;;0.52;0.40;;;;;;;;;;5088406;28;20478;-67
2024/01/24 13:55:40;;;;;;;0.40;0.40;;;;;;;;;;5074342;28;20048;-66
2024/01/24 13:58:08;;;;;;;0.40;0.40;;;;;;;;;;5087289;28;20137;-66
2024/01/24 14:00:37;;;;;;;0.30;0.30;;;;;;;;;;5088321;28;20040;-65
2024/01/24 14:03:06;;;;;;;0.35;0.35;;;;;;;;;;5087673;28;20040;-67
2024/01/24 14:05:35;;;;;;;0.40;0.32;;;;;;;;;;5088690;28;20083;-65
2024/01/24 14:08:07;;;;;;;0.20;0.20;;;;;;;;;;5080514;28;20389;-68
2024/01/24 14:10:36;;;;;;;0.30;0.30;;;;;;;;;;5089377;28;20069;-66
2024/01/24 14:13:05;;;;;;;2.47;0.40;;;;;;;;;;5088246;28;20044;-67
2024/01/24 14:15:34;;;;;;;0.30;0.30;;;;;;;;;;5078898;28;20040;-67
2024/01/24 14:18:05;;;;;;;0.30;0.30;;;;;;;;;;5076908;28;20051;-67
2024/01/24 14:20:34;;;;;;;0.30;0.30;;;;;;;;;;5081554;28;20052;-68
2024/01/24 14:23:03;;;;;;;0.30;0.30;;;;;;;;;;5086975;28;20052;-68
2024/01/24 14:25:32;;;;;;;0.30;0.30;;;;;;;;;;5083326;28;20059;-66
2024/01/24 14:28:02;;;;;;;0.30;0.30;;;;;;;;;;5089753;28;20055;-67
2024/01/24 14:30:31;;;;;;;0.60;0.43;;;;;;;;;;5086694;28;20045;-66
2024/01/24 14:33:00;;;;;;;0.40;0.30;;;;;;;;;;5087099;28;20082;-66
2024/01/24 14:35:30;;;;;;;0.30;0.30;;;;;;;;;;5087197;28;20048;-65
2024/01/24 14:37:59;;;;;;;1.02;0.50;;;;;;;;;;5087326;28;20058;-66
2024/01/24 14:40:28;;;;;;;1.60;0.93;;;;;;;;;;5083230;28;20061;-66
2024/01/24 14:42:56;;;;;;;0.43;0.32;;;;;;;;;;5081774;28;20052;-68
2024/01/24 14:45:27;;;;;;;0.40;0.32;;;;;;;;;;5088031;28;20424;-67
2024/01/24 14:47:55;;;;;;;0.32;0.32;;;;;;;;;;5089774;28;20093;-67
2024/01/24 14:50:24;;;;;;;0.32;0.30;;;;;;;;;;5083087;28;20415;-68
2024/01/24 14:52:52;;;;;;;0.30;0.30;;;;;;;;;;5090154;28;20536;-67
2024/01/24 14:55:21;;;;;;;0.30;0.30;;;;;;;;;;5083585;28;20125;-67
2024/01/24 14:57:51;;;;;;;0.30;0.30;;;;;;;;;;5085533;28;20514;-66